sensor_id;sensor_type;location;lat;lon;timestamp;temperature;humidity
74540;SHT31;66042;51.090;-115.340;2023-09-30T00:00:06;17.30;33.45
74540;SHT31;66042;51.090;-115.340;2023-09-30T00:02:34;17.19;33.55
74540;SHT31;66042;51.090;-115.340;2023-09-30T00:05:01;17.03;33.58
74540;SHT31;66042;51.090;-115.340;2023-09-30T00:07:29;16.85;33.93
74540;SHT31;66042;51.090;-115.340;2023-09-30T00:09:55;16.71;33.90
74540;SHT31;66042;51.090;-115.340;2023-09-30T00:12:22;16.53;34.14
74540;SHT31;66042;51.090;-115.340;2023-09-30T00:14:49;16.36;33.96
74540;SHT31;66042;51.090;-115.340;2023-09-30T00:17:16;16.12;34.08
74540;SHT31;66042;51.090;-115.340;2023-09-30T00:19:43;15.87;34.76
74540;SHT31;66042;51.090;-115.340;2023-09-30T00:22:10;15.67;35.13
74540;SHT31;66042;51.090;-115.340;2023-09-30T00:24:37;15.42;35.72
74540;SHT31;66042;51.090;-115.340;2023-09-30T00:27:04;15.20;36.61
74540;SHT31;66042;51.090;-115.340;2023-09-30T00:29:31;15.13;37.25
74540;SHT31;66042;51.090;-115.340;2023-09-30T00:31:57;15.05;37.71
74540;SHT31;66042;51.090;-115.340;2023-09-30T00:34:25;14.91;39.37
74540;SHT31;66042;51.090;-115.340;2023-09-30T00:36:51;14.78;40.56
74540;SHT31;66042;51.090;-115.340;2023-09-30T00:39:19;14.66;41.10
74540;SHT31;66042;51.090;-115.340;2023-09-30T00:41:46;14.59;42.36
74540;SHT31;66042;51.090;-115.340;2023-09-30T00:44:13;14.43;42.35
74540;SHT31;66042;51.090;-115.340;2023-09-30T00:46:39;14.37;42.51
74540;SHT31;66042;51.090;-115.340;2023-09-30T00:49:08;14.31;43.08
74540;SHT31;66042;51.090;-115.340;2023-09-30T00:51:35;14.22;44.23
74540;SHT31;66042;51.090;-115.340;2023-09-30T00:54:03;14.11;44.72
74540;SHT31;66042;51.090;-115.340;2023-09-30T00:56:31;13.92;45.53
74540;SHT31;66042;51.090;-115.340;2023-09-30T00:58:59;13.71;45.67
74540;SHT31;66042;51.090;-115.340;2023-09-30T01:01:26;13.54;45.51
74540;SHT31;66042;51.090;-115.340;2023-09-30T01:03:53;13.40;46.19
74540;SHT31;66042;51.090;-115.340;2023-09-30T01:06:20;13.23;46.51
74540;SHT31;66042;51.090;-115.340;2023-09-30T01:08:47;13.02;46.97
74540;SHT31;66042;51.090;-115.340;2023-09-30T01:11:14;12.73;47.69
74540;SHT31;66042;51.090;-115.340;2023-09-30T01:13:41;12.44;48.69
74540;SHT31;66042;51.090;-115.340;2023-09-30T01:16:10;12.26;49.10
74540;SHT31;66042;51.090;-115.340;2023-09-30T01:18:38;12.18;49.10
74540;SHT31;66042;51.090;-115.340;2023-09-30T01:21:08;12.08;49.73
74540;SHT31;66042;51.090;-115.340;2023-09-30T01:23:36;11.83;50.50
74540;SHT31;66042;51.090;-115.340;2023-09-30T01:26:08;11.73;50.58
74540;SHT31;66042;51.090;-115.340;2023-09-30T01:28:40;11.68;50.80
74540;SHT31;66042;51.090;-115.340;2023-09-30T01:31:07;11.66;51.00
74540;SHT31;66042;51.090;-115.340;2023-09-30T01:33:34;11.60;51.10
74540;SHT31;66042;51.090;-115.340;2023-09-30T01:36:01;11.55;51.27
74540;SHT31;66042;51.090;-115.340;2023-09-30T01:38:28;11.44;51.71
74540;SHT31;66042;51.090;-115.340;2023-09-30T01:40:55;11.35;51.96
74540;SHT31;66042;51.090;-115.340;2023-09-30T01:43:22;11.35;52.26
74540;SHT31;66042;51.090;-115.340;2023-09-30T01:45:49;11.31;52.83
74540;SHT31;66042;51.090;-115.340;2023-09-30T01:48:16;11.26;53.00
74540;SHT31;66042;51.090;-115.340;2023-09-30T01:50:43;11.24;53.83
74540;SHT31;66042;51.090;-115.340;2023-09-30T01:53:10;11.11;54.51
74540;SHT31;66042;51.090;-115.340;2023-09-30T01:55:37;11.10;53.96
74540;SHT31;66042;51.090;-115.340;2023-09-30T01:58:05;11.14;54.15
74540;SHT31;66042;51.090;-115.340;2023-09-30T02:00:32;11.11;54.69
74540;SHT31;66042;51.090;-115.340;2023-09-30T02:03:00;11.07;54.94
74540;SHT31;66042;51.090;-115.340;2023-09-30T02:05:28;11.03;54.75
74540;SHT31;66042;51.090;-115.340;2023-09-30T02:07:55;11.01;54.80
74540;SHT31;66042;51.090;-115.340;2023-09-30T02:10:21;10.98;54.97
74540;SHT31;66042;51.090;-115.340;2023-09-30T02:12:48;10.97;55.09
74540;SHT31;66042;51.090;-115.340;2023-09-30T02:15:16;10.95;55.32
74540;SHT31;66042;51.090;-115.340;2023-09-30T02:17:42;10.90;55.41
74540;SHT31;66042;51.090;-115.340;2023-09-30T02:20:11;10.86;55.66
74540;SHT31;66042;51.090;-115.340;2023-09-30T02:22:41;10.81;55.96
74540;SHT31;66042;51.090;-115.340;2023-09-30T02:25:13;10.74;56.18
74540;SHT31;66042;51.090;-115.340;2023-09-30T02:27:40;10.69;56.34
74540;SHT31;66042;51.090;-115.340;2023-09-30T02:30:11;10.64;56.53
74540;SHT31;66042;51.090;-115.340;2023-09-30T02:32:39;10.62;56.69
74540;SHT31;66042;51.090;-115.340;2023-09-30T02:35:06;10.59;57.22
74540;SHT31;66042;51.090;-115.340;2023-09-30T02:37:39;10.54;57.14
74540;SHT31;66042;51.090;-115.340;2023-09-30T02:40:06;10.52;57.45
74540;SHT31;66042;51.090;-115.340;2023-09-30T02:42:37;10.50;57.45
74540;SHT31;66042;51.090;-115.340;2023-09-30T02:45:05;10.49;57.56
74540;SHT31;66042;51.090;-115.340;2023-09-30T02:47:34;10.49;57.75
74540;SHT31;66042;51.090;-115.340;2023-09-30T02:50:02;10.49;57.92
74540;SHT31;66042;51.090;-115.340;2023-09-30T02:52:34;10.47;58.22
74540;SHT31;66042;51.090;-115.340;2023-09-30T02:55:01;10.46;58.27
74540;SHT31;66042;51.090;-115.340;2023-09-30T02:57:28;10.46;58.48
74540;SHT31;66042;51.090;-115.340;2023-09-30T02:59:57;10.46;58.55
74540;SHT31;66042;51.090;-115.340;2023-09-30T03:02:26;10.39;59.26
74540;SHT31;66042;51.090;-115.340;2023-09-30T03:04:55;10.30;58.97
74540;SHT31;66042;51.090;-115.340;2023-09-30T03:07:23;10.26;58.58
74540;SHT31;66042;51.090;-115.340;2023-09-30T03:09:50;10.26;58.49
74540;SHT31;66042;51.090;-115.340;2023-09-30T03:12:19;10.23;58.46
74540;SHT31;66042;51.090;-115.340;2023-09-30T03:14:46;10.23;58.66
74540;SHT31;66042;51.090;-115.340;2023-09-30T03:17:13;10.22;58.77
74540;SHT31;66042;51.090;-115.340;2023-09-30T03:19:40;10.22;58.96
74540;SHT31;66042;51.090;-115.340;2023-09-30T03:22:07;10.21;58.93
74540;SHT31;66042;51.090;-115.340;2023-09-30T03:24:39;10.19;58.75
74540;SHT31;66042;51.090;-115.340;2023-09-30T03:27:07;10.17;58.83
74540;SHT31;66042;51.090;-115.340;2023-09-30T03:29:35;10.14;58.95
74540;SHT31;66042;51.090;-115.340;2023-09-30T03:32:03;10.09;59.14
74540;SHT31;66042;51.090;-115.340;2023-09-30T03:34:30;10.04;59.57
74540;SHT31;66042;51.090;-115.340;2023-09-30T03:36:58;9.96;59.53
74540;SHT31;66042;51.090;-115.340;2023-09-30T03:39:25;9.93;59.64
74540;SHT31;66042;51.090;-115.340;2023-09-30T03:41:54;9.87;59.83
74540;SHT31;66042;51.090;-115.340;2023-09-30T03:44:24;9.81;59.90
74540;SHT31;66042;51.090;-115.340;2023-09-30T03:46:51;9.73;60.01
74540;SHT31;66042;51.090;-115.340;2023-09-30T03:49:19;9.67;60.08
74540;SHT31;66042;51.090;-115.340;2023-09-30T03:51:46;9.60;60.31
74540;SHT31;66042;51.090;-115.340;2023-09-30T03:54:16;9.55;60.16
74540;SHT31;66042;51.090;-115.340;2023-09-30T03:56:44;9.54;60.16
74540;SHT31;66042;51.090;-115.340;2023-09-30T03:59:13;9.55;60.24
74540;SHT31;66042;51.090;-115.340;2023-09-30T04:01:41;9.54;60.28
74540;SHT31;66042;51.090;-115.340;2023-09-30T04:04:08;9.55;60.23
74540;SHT31;66042;51.090;-115.340;2023-09-30T04:06:35;9.52;60.26
74540;SHT31;66042;51.090;-115.340;2023-09-30T04:09:06;9.51;60.28
74540;SHT31;66042;51.090;-115.340;2023-09-30T04:11:36;9.46;60.32
74540;SHT31;66042;51.090;-115.340;2023-09-30T04:14:06;9.46;60.44
74540;SHT31;66042;51.090;-115.340;2023-09-30T04:16:34;9.44;60.54
74540;SHT31;66042;51.090;-115.340;2023-09-30T04:19:03;9.41;60.50
74540;SHT31;66042;51.090;-115.340;2023-09-30T04:21:30;9.38;60.48
74540;SHT31;66042;51.090;-115.340;2023-09-30T04:23:59;9.35;60.66
74540;SHT31;66042;51.090;-115.340;2023-09-30T04:26:27;9.28;60.93
74540;SHT31;66042;51.090;-115.340;2023-09-30T04:28:55;9.25;61.00
74540;SHT31;66042;51.090;-115.340;2023-09-30T04:31:22;9.24;61.10
74540;SHT31;66042;51.090;-115.340;2023-09-30T04:33:49;9.21;61.49
74540;SHT31;66042;51.090;-115.340;2023-09-30T04:36:17;9.16;61.60
74540;SHT31;66042;51.090;-115.340;2023-09-30T04:38:44;9.15;61.75
74540;SHT31;66042;51.090;-115.340;2023-09-30T04:41:11;9.14;61.91
74540;SHT31;66042;51.090;-115.340;2023-09-30T04:43:38;9.16;61.82
74540;SHT31;66042;51.090;-115.340;2023-09-30T04:46:06;9.16;61.72
74540;SHT31;66042;51.090;-115.340;2023-09-30T04:48:33;9.19;61.60
74540;SHT31;66042;51.090;-115.340;2023-09-30T04:51:01;9.21;61.65
74540;SHT31;66042;51.090;-115.340;2023-09-30T04:53:31;9.23;61.97
74540;SHT31;66042;51.090;-115.340;2023-09-30T04:55:59;9.19;62.03
74540;SHT31;66042;51.090;-115.340;2023-09-30T04:58:27;9.20;62.03
74540;SHT31;66042;51.090;-115.340;2023-09-30T05:00:55;9.22;61.95
74540;SHT31;66042;51.090;-115.340;2023-09-30T05:03:22;9.18;62.43
74540;SHT31;66042;51.090;-115.340;2023-09-30T05:05:50;9.14;62.38
74540;SHT31;66042;51.090;-115.340;2023-09-30T05:08:22;9.14;62.48
74540;SHT31;66042;51.090;-115.340;2023-09-30T05:10:49;9.12;62.42
74540;SHT31;66042;51.090;-115.340;2023-09-30T05:13:20;9.13;62.40
74540;SHT31;66042;51.090;-115.340;2023-09-30T05:15:51;9.11;62.45
74540;SHT31;66042;51.090;-115.340;2023-09-30T05:18:18;9.09;62.47
74540;SHT31;66042;51.090;-115.340;2023-09-30T05:20:46;9.06;62.50
74540;SHT31;66042;51.090;-115.340;2023-09-30T05:23:14;9.05;62.68
74540;SHT31;66042;51.090;-115.340;2023-09-30T05:25:43;9.02;62.85
74540;SHT31;66042;51.090;-115.340;2023-09-30T05:28:10;8.98;63.18
74540;SHT31;66042;51.090;-115.340;2023-09-30T05:30:39;8.96;63.26
74540;SHT31;66042;51.090;-115.340;2023-09-30T05:33:06;8.97;63.28
74540;SHT31;66042;51.090;-115.340;2023-09-30T05:35:33;8.99;63.17
74540;SHT31;66042;51.090;-115.340;2023-09-30T05:38:00;9.03;62.98
74540;SHT31;66042;51.090;-115.340;2023-09-30T05:40:29;9.09;63.15
74540;SHT31;66042;51.090;-115.340;2023-09-30T05:42:57;9.10;62.99
74540;SHT31;66042;51.090;-115.340;2023-09-30T05:45:25;9.11;62.85
74540;SHT31;66042;51.090;-115.340;2023-09-30T05:47:53;9.13;62.74
74540;SHT31;66042;51.090;-115.340;2023-09-30T05:50:23;9.11;62.90
74540;SHT31;66042;51.090;-115.340;2023-09-30T05:52:54;9.08;63.02
74540;SHT31;66042;51.090;-115.340;2023-09-30T05:55:22;9.07;62.92
74540;SHT31;66042;51.090;-115.340;2023-09-30T05:57:51;9.07;62.94
74540;SHT31;66042;51.090;-115.340;2023-09-30T06:00:18;9.07;62.77
74540;SHT31;66042;51.090;-115.340;2023-09-30T06:02:48;9.03;62.69
74540;SHT31;66042;51.090;-115.340;2023-09-30T06:05:17;8.98;62.74
74540;SHT31;66042;51.090;-115.340;2023-09-30T06:07:45;8.95;62.67
74540;SHT31;66042;51.090;-115.340;2023-09-30T06:10:12;8.91;62.62
74540;SHT31;66042;51.090;-115.340;2023-09-30T06:12:47;8.88;62.53
74540;SHT31;66042;51.090;-115.340;2023-09-30T06:15:24;8.82;62.60
74540;SHT31;66042;51.090;-115.340;2023-09-30T06:17:55;8.78;62.66
74540;SHT31;66042;51.090;-115.340;2023-09-30T06:20:23;8.68;62.84
74540;SHT31;66042;51.090;-115.340;2023-09-30T06:22:51;8.63;62.97
74540;SHT31;66042;51.090;-115.340;2023-09-30T06:25:21;8.55;63.22
74540;SHT31;66042;51.090;-115.340;2023-09-30T06:27:53;8.55;63.19
74540;SHT31;66042;51.090;-115.340;2023-09-30T06:30:20;8.54;62.92
74540;SHT31;66042;51.090;-115.340;2023-09-30T06:32:50;8.51;63.02
74540;SHT31;66042;51.090;-115.340;2023-09-30T06:35:17;8.49;63.17
74540;SHT31;66042;51.090;-115.340;2023-09-30T06:37:44;8.46;63.08
74540;SHT31;66042;51.090;-115.340;2023-09-30T06:40:11;8.41;62.91
74540;SHT31;66042;51.090;-115.340;2023-09-30T06:42:38;8.38;62.79
74540;SHT31;66042;51.090;-115.340;2023-09-30T06:45:08;8.38;62.70
74540;SHT31;66042;51.090;-115.340;2023-09-30T06:47:36;8.38;62.65
74540;SHT31;66042;51.090;-115.340;2023-09-30T06:50:08;8.39;62.73
74540;SHT31;66042;51.090;-115.340;2023-09-30T06:52:41;8.36;63.00
74540;SHT31;66042;51.090;-115.340;2023-09-30T06:55:14;8.31;63.25
74540;SHT31;66042;51.090;-115.340;2023-09-30T06:57:44;8.27;63.28
74540;SHT31;66042;51.090;-115.340;2023-09-30T07:00:12;8.23;63.53
74540;SHT31;66042;51.090;-115.340;2023-09-30T07:02:40;8.16;63.66
74540;SHT31;66042;51.090;-115.340;2023-09-30T07:05:08;8.12;63.90
74540;SHT31;66042;51.090;-115.340;2023-09-30T07:07:36;8.11;63.89
74540;SHT31;66042;51.090;-115.340;2023-09-30T07:10:05;8.08;63.90
74540;SHT31;66042;51.090;-115.340;2023-09-30T07:12:33;8.05;63.87
74540;SHT31;66042;51.090;-115.340;2023-09-30T07:15:01;8.07;63.92
74540;SHT31;66042;51.090;-115.340;2023-09-30T07:17:29;8.06;63.99
74540;SHT31;66042;51.090;-115.340;2023-09-30T07:19:57;8.08;64.02
74540;SHT31;66042;51.090;-115.340;2023-09-30T07:22:25;8.13;64.20
74540;SHT31;66042;51.090;-115.340;2023-09-30T07:24:52;8.16;64.11
74540;SHT31;66042;51.090;-115.340;2023-09-30T07:27:18;8.22;64.03
74540;SHT31;66042;51.090;-115.340;2023-09-30T07:29:45;8.21;64.26
74540;SHT31;66042;51.090;-115.340;2023-09-30T07:32:13;8.23;64.11
74540;SHT31;66042;51.090;-115.340;2023-09-30T07:34:40;8.25;64.22
74540;SHT31;66042;51.090;-115.340;2023-09-30T07:37:07;8.26;64.13
74540;SHT31;66042;51.090;-115.340;2023-09-30T07:39:38;8.31;64.03
74540;SHT31;66042;51.090;-115.340;2023-09-30T07:42:04;8.33;64.09
74540;SHT31;66042;51.090;-115.340;2023-09-30T07:44:35;8.34;63.89
74540;SHT31;66042;51.090;-115.340;2023-09-30T07:47:05;8.30;63.79
74540;SHT31;66042;51.090;-115.340;2023-09-30T07:49:35;8.27;63.91
74540;SHT31;66042;51.090;-115.340;2023-09-30T07:52:03;8.25;64.02
74540;SHT31;66042;51.090;-115.340;2023-09-30T07:54:30;8.24;64.04
74540;SHT31;66042;51.090;-115.340;2023-09-30T07:56:56;8.23;64.20
74540;SHT31;66042;51.090;-115.340;2023-09-30T07:59:26;8.24;64.23
74540;SHT31;66042;51.090;-115.340;2023-09-30T08:01:53;8.22;64.22
74540;SHT31;66042;51.090;-115.340;2023-09-30T08:04:22;8.22;64.25
74540;SHT31;66042;51.090;-115.340;2023-09-30T08:06:50;8.20;64.32
74540;SHT31;66042;51.090;-115.340;2023-09-30T08:09:18;8.22;64.26
74540;SHT31;66042;51.090;-115.340;2023-09-30T08:11:45;8.25;64.29
74540;SHT31;66042;51.090;-115.340;2023-09-30T08:14:12;8.29;64.33
74540;SHT31;66042;51.090;-115.340;2023-09-30T08:16:40;8.32;64.19
74540;SHT31;66042;51.090;-115.340;2023-09-30T08:19:08;8.32;64.01
74540;SHT31;66042;51.090;-115.340;2023-09-30T08:21:35;8.32;63.85
74540;SHT31;66042;51.090;-115.340;2023-09-30T08:24:02;8.34;63.76
74540;SHT31;66042;51.090;-115.340;2023-09-30T08:26:29;8.35;63.65
74540;SHT31;66042;51.090;-115.340;2023-09-30T08:28:56;8.35;63.61
74540;SHT31;66042;51.090;-115.340;2023-09-30T08:31:22;8.35;63.64
74540;SHT31;66042;51.090;-115.340;2023-09-30T08:33:49;8.32;63.60
74540;SHT31;66042;51.090;-115.340;2023-09-30T08:36:17;8.27;63.88
74540;SHT31;66042;51.090;-115.340;2023-09-30T08:38:44;8.16;64.02
74540;SHT31;66042;51.090;-115.340;2023-09-30T08:41:11;8.15;64.00
74540;SHT31;66042;51.090;-115.340;2023-09-30T08:44:03;8.13;64.11
74540;SHT31;66042;51.090;-115.340;2023-09-30T08:46:34;8.12;64.08
74540;SHT31;66042;51.090;-115.340;2023-09-30T08:49:01;8.10;64.09
74540;SHT31;66042;51.090;-115.340;2023-09-30T08:51:31;8.08;64.16
74540;SHT31;66042;51.090;-115.340;2023-09-30T08:53:59;8.09;64.17
74540;SHT31;66042;51.090;-115.340;2023-09-30T08:56:29;8.09;64.27
74540;SHT31;66042;51.090;-115.340;2023-09-30T08:59:01;8.09;64.24
74540;SHT31;66042;51.090;-115.340;2023-09-30T09:01:29;8.08;64.25
74540;SHT31;66042;51.090;-115.340;2023-09-30T09:03:57;8.09;64.23
74540;SHT31;66042;51.090;-115.340;2023-09-30T09:06:25;8.08;64.30
74540;SHT31;66042;51.090;-115.340;2023-09-30T09:08:52;8.08;64.31
74540;SHT31;66042;51.090;-115.340;2023-09-30T09:11:19;8.09;64.08
74540;SHT31;66042;51.090;-115.340;2023-09-30T09:13:49;8.10;64.04
74540;SHT31;66042;51.090;-115.340;2023-09-30T09:16:25;8.10;63.97
74540;SHT31;66042;51.090;-115.340;2023-09-30T09:18:52;8.06;64.08
74540;SHT31;66042;51.090;-115.340;2023-09-30T09:21:22;8.02;64.05
74540;SHT31;66042;51.090;-115.340;2023-09-30T09:23:51;8.01;64.01
74540;SHT31;66042;51.090;-115.340;2023-09-30T09:29:03;7.88;63.96
74540;SHT31;66042;51.090;-115.340;2023-09-30T09:31:34;7.84;63.98
74540;SHT31;66042;51.090;-115.340;2023-09-30T09:34:02;7.80;64.01
74540;SHT31;66042;51.090;-115.340;2023-09-30T09:36:40;7.70;64.16
74540;SHT31;66042;51.090;-115.340;2023-09-30T09:39:10;7.64;64.36
74540;SHT31;66042;51.090;-115.340;2023-09-30T09:41:51;7.62;64.39
74540;SHT31;66042;51.090;-115.340;2023-09-30T09:44:22;7.58;64.47
74540;SHT31;66042;51.090;-115.340;2023-09-30T09:46:53;7.55;64.54
74540;SHT31;66042;51.090;-115.340;2023-09-30T09:49:21;7.57;64.54
74540;SHT31;66042;51.090;-115.340;2023-09-30T09:51:49;7.56;64.60
74540;SHT31;66042;51.090;-115.340;2023-09-30T09:54:19;7.51;64.71
74540;SHT31;66042;51.090;-115.340;2023-09-30T09:56:48;7.49;64.70
74540;SHT31;66042;51.090;-115.340;2023-09-30T09:59:22;7.49;64.77
74540;SHT31;66042;51.090;-115.340;2023-09-30T10:01:51;7.48;64.71
74540;SHT31;66042;51.090;-115.340;2023-09-30T10:04:20;7.44;64.79
74540;SHT31;66042;51.090;-115.340;2023-09-30T10:06:47;7.43;64.65
74540;SHT31;66042;51.090;-115.340;2023-09-30T10:09:19;7.37;64.61
74540;SHT31;66042;51.090;-115.340;2023-09-30T10:11:47;7.35;64.60
74540;SHT31;66042;51.090;-115.340;2023-09-30T10:14:31;7.34;64.80
74540;SHT31;66042;51.090;-115.340;2023-09-30T10:16:58;7.34;64.81
74540;SHT31;66042;51.090;-115.340;2023-09-30T10:19:26;7.32;64.97
74540;SHT31;66042;51.090;-115.340;2023-09-30T10:24:54;7.26;65.02
74540;SHT31;66042;51.090;-115.340;2023-09-30T10:30:13;7.23;65.31
74540;SHT31;66042;51.090;-115.340;2023-09-30T10:35:17;7.22;65.43
74540;SHT31;66042;51.090;-115.340;2023-09-30T10:37:44;7.26;65.46
74540;SHT31;66042;51.090;-115.340;2023-09-30T10:40:28;7.27;65.43
74540;SHT31;66042;51.090;-115.340;2023-09-30T10:42:59;7.29;65.45
74540;SHT31;66042;51.090;-115.340;2023-09-30T10:51:15;7.33;65.04
74540;SHT31;66042;51.090;-115.340;2023-09-30T10:53:50;7.34;65.02
74540;SHT31;66042;51.090;-115.340;2023-09-30T10:56:23;7.36;64.88
74540;SHT31;66042;51.090;-115.340;2023-09-30T10:58:59;7.35;64.93
74540;SHT31;66042;51.090;-115.340;2023-09-30T11:01:34;7.32;64.90
74540;SHT31;66042;51.090;-115.340;2023-09-30T11:04:02;7.31;64.99
74540;SHT31;66042;51.090;-115.340;2023-09-30T11:06:31;7.30;64.95
74540;SHT31;66042;51.090;-115.340;2023-09-30T11:08:59;7.27;65.24
74540;SHT31;66042;51.090;-115.340;2023-09-30T11:16:50;7.17;65.45
74540;SHT31;66042;51.090;-115.340;2023-09-30T11:19:19;7.16;65.58
74540;SHT31;66042;51.090;-115.340;2023-09-30T11:21:53;7.14;65.74
74540;SHT31;66042;51.090;-115.340;2023-09-30T11:24:21;7.16;65.85
74540;SHT31;66042;51.090;-115.340;2023-09-30T11:26:52;7.18;65.77
74540;SHT31;66042;51.090;-115.340;2023-09-30T11:29:21;7.22;65.64
74540;SHT31;66042;51.090;-115.340;2023-09-30T11:31:49;7.23;65.49
74540;SHT31;66042;51.090;-115.340;2023-09-30T11:34:18;7.24;65.37
74540;SHT31;66042;51.090;-115.340;2023-09-30T11:36:57;7.24;65.40
74540;SHT31;66042;51.090;-115.340;2023-09-30T11:39:27;7.24;65.46
74540;SHT31;66042;51.090;-115.340;2023-09-30T11:41:56;7.23;65.42
74540;SHT31;66042;51.090;-115.340;2023-09-30T11:44:24;7.22;65.46
74540;SHT31;66042;51.090;-115.340;2023-09-30T11:46:57;7.20;65.46
74540;SHT31;66042;51.090;-115.340;2023-09-30T11:49:34;7.19;65.42
74540;SHT31;66042;51.090;-115.340;2023-09-30T11:52:04;7.19;65.48
74540;SHT31;66042;51.090;-115.340;2023-09-30T11:54:36;7.17;65.60
74540;SHT31;66042;51.090;-115.340;2023-09-30T11:59:41;7.13;65.71
74540;SHT31;66042;51.090;-115.340;2023-09-30T12:02:11;7.09;65.86
74540;SHT31;66042;51.090;-115.340;2023-09-30T12:04:45;7.09;65.91
74540;SHT31;66042;51.090;-115.340;2023-09-30T12:07:15;7.11;65.96
74540;SHT31;66042;51.090;-115.340;2023-09-30T12:09:42;7.14;65.98
74540;SHT31;66042;51.090;-115.340;2023-09-30T12:12:08;7.14;65.82
74540;SHT31;66042;51.090;-115.340;2023-09-30T12:14:36;7.17;65.79
74540;SHT31;66042;51.090;-115.340;2023-09-30T12:17:03;7.20;65.51
74540;SHT31;66042;51.090;-115.340;2023-09-30T12:19:30;7.24;65.60
74540;SHT31;66042;51.090;-115.340;2023-09-30T12:21:57;7.26;65.55
74540;SHT31;66042;51.090;-115.340;2023-09-30T12:24:24;7.25;65.55
74540;SHT31;66042;51.090;-115.340;2023-09-30T12:26:51;7.23;65.58
74540;SHT31;66042;51.090;-115.340;2023-09-30T12:29:19;7.17;65.66
74540;SHT31;66042;51.090;-115.340;2023-09-30T12:31:48;7.15;65.65
74540;SHT31;66042;51.090;-115.340;2023-09-30T12:34:18;7.11;65.73
74540;SHT31;66042;51.090;-115.340;2023-09-30T12:36:45;7.07;65.75
74540;SHT31;66042;51.090;-115.340;2023-09-30T12:39:13;7.04;65.76
74540;SHT31;66042;51.090;-115.340;2023-09-30T12:41:42;7.04;65.77
74540;SHT31;66042;51.090;-115.340;2023-09-30T12:44:10;7.01;65.90
74540;SHT31;66042;51.090;-115.340;2023-09-30T12:46:37;7.04;65.89
74540;SHT31;66042;51.090;-115.340;2023-09-30T12:49:04;7.06;65.97
74540;SHT31;66042;51.090;-115.340;2023-09-30T12:51:34;7.08;65.97
74540;SHT31;66042;51.090;-115.340;2023-09-30T12:54:02;7.14;65.91
74540;SHT31;66042;51.090;-115.340;2023-09-30T12:56:30;7.16;65.86
74540;SHT31;66042;51.090;-115.340;2023-09-30T12:58:57;7.21;65.71
74540;SHT31;66042;51.090;-115.340;2023-09-30T13:01:25;7.23;65.87
74540;SHT31;66042;51.090;-115.340;2023-09-30T13:03:53;7.22;65.75
74540;SHT31;66042;51.090;-115.340;2023-09-30T13:06:20;7.22;65.74
74540;SHT31;66042;51.090;-115.340;2023-09-30T13:08:47;7.23;65.62
74540;SHT31;66042;51.090;-115.340;2023-09-30T13:11:14;7.24;65.55
74540;SHT31;66042;51.090;-115.340;2023-09-30T13:13:41;7.24;65.42
74540;SHT31;66042;51.090;-115.340;2023-09-30T13:16:10;7.23;65.49
74540;SHT31;66042;51.090;-115.340;2023-09-30T13:18:37;7.24;65.64
74540;SHT31;66042;51.090;-115.340;2023-09-30T13:21:05;7.23;65.73
74540;SHT31;66042;51.090;-115.340;2023-09-30T13:23:32;7.20;65.68
74540;SHT31;66042;51.090;-115.340;2023-09-30T13:26:00;7.13;65.76
74540;SHT31;66042;51.090;-115.340;2023-09-30T13:28:28;7.07;65.88
74540;SHT31;66042;51.090;-115.340;2023-09-30T13:30:55;7.05;65.89
74540;SHT31;66042;51.090;-115.340;2023-09-30T13:33:23;7.07;65.98
74540;SHT31;66042;51.090;-115.340;2023-09-30T13:35:50;7.06;65.92
74540;SHT31;66042;51.090;-115.340;2023-09-30T13:38:17;7.09;65.92
74540;SHT31;66042;51.090;-115.340;2023-09-30T13:40:44;7.10;65.96
74540;SHT31;66042;51.090;-115.340;2023-09-30T13:43:11;7.10;66.10
74540;SHT31;66042;51.090;-115.340;2023-09-30T13:45:39;7.09;66.02
74540;SHT31;66042;51.090;-115.340;2023-09-30T13:48:06;7.11;65.94
74540;SHT31;66042;51.090;-115.340;2023-09-30T13:50:34;7.15;65.88
74540;SHT31;66042;51.090;-115.340;2023-09-30T13:53:01;7.17;65.90
74540;SHT31;66042;51.090;-115.340;2023-09-30T13:55:28;7.18;65.98
74540;SHT31;66042;51.090;-115.340;2023-09-30T13:57:55;7.13;65.90
74540;SHT31;66042;51.090;-115.340;2023-09-30T14:00:22;7.10;65.89
74540;SHT31;66042;51.090;-115.340;2023-09-30T14:02:49;7.10;65.80
74540;SHT31;66042;51.090;-115.340;2023-09-30T14:05:16;7.09;65.82
74540;SHT31;66042;51.090;-115.340;2023-09-30T14:07:44;7.08;65.91
74540;SHT31;66042;51.090;-115.340;2023-09-30T14:10:12;7.08;66.00
74540;SHT31;66042;51.090;-115.340;2023-09-30T14:12:39;7.06;66.02
74540;SHT31;66042;51.090;-115.340;2023-09-30T14:15:07;7.06;66.03
74540;SHT31;66042;51.090;-115.340;2023-09-30T14:17:35;7.01;66.12
74540;SHT31;66042;51.090;-115.340;2023-09-30T14:20:02;6.99;66.09
74540;SHT31;66042;51.090;-115.340;2023-09-30T14:22:30;6.98;66.38
74540;SHT31;66042;51.090;-115.340;2023-09-30T14:24:57;6.95;66.47
74540;SHT31;66042;51.090;-115.340;2023-09-30T14:27:23;6.99;66.39
74540;SHT31;66042;51.090;-115.340;2023-09-30T14:29:51;7.01;66.26
74540;SHT31;66042;51.090;-115.340;2023-09-30T14:32:18;7.04;66.27
74540;SHT31;66042;51.090;-115.340;2023-09-30T14:34:45;7.04;66.21
74540;SHT31;66042;51.090;-115.340;2023-09-30T14:37:12;7.03;66.27
74540;SHT31;66042;51.090;-115.340;2023-09-30T14:39:39;7.00;66.17
74540;SHT31;66042;51.090;-115.340;2023-09-30T14:42:07;7.03;66.20
74540;SHT31;66042;51.090;-115.340;2023-09-30T14:44:34;7.05;66.13
74540;SHT31;66042;51.090;-115.340;2023-09-30T14:47:00;7.07;66.13
74540;SHT31;66042;51.090;-115.340;2023-09-30T14:49:27;7.08;66.18
74540;SHT31;66042;51.090;-115.340;2023-09-30T14:51:56;7.07;66.05
74540;SHT31;66042;51.090;-115.340;2023-09-30T14:54:24;7.08;66.11
74540;SHT31;66042;51.090;-115.340;2023-09-30T14:56:51;7.07;66.18
74540;SHT31;66042;51.090;-115.340;2023-09-30T14:59:18;7.05;66.27
74540;SHT31;66042;51.090;-115.340;2023-09-30T15:01:45;7.01;66.34
74540;SHT31;66042;51.090;-115.340;2023-09-30T15:04:12;6.99;66.23
74540;SHT31;66042;51.090;-115.340;2023-09-30T15:06:40;6.98;66.30
74540;SHT31;66042;51.090;-115.340;2023-09-30T15:09:07;7.00;66.29
74540;SHT31;66042;51.090;-115.340;2023-09-30T15:11:38;7.04;66.20
74540;SHT31;66042;51.090;-115.340;2023-09-30T15:14:06;7.04;66.24
74540;SHT31;66042;51.090;-115.340;2023-09-30T15:16:33;7.09;66.13
74540;SHT31;66042;51.090;-115.340;2023-09-30T15:19:00;7.13;66.17
74540;SHT31;66042;51.090;-115.340;2023-09-30T15:21:27;7.13;66.10
74540;SHT31;66042;51.090;-115.340;2023-09-30T15:23:53;7.12;66.12
74540;SHT31;66042;51.090;-115.340;2023-09-30T15:26:20;7.11;66.24
74540;SHT31;66042;51.090;-115.340;2023-09-30T15:28:47;7.10;66.13